Time;durP1;ratioP1;P1;durP2;ratioP2;P2;SDS_P1;SDS_P2;PMS_P1;PMS_P2;Temp;Humidity;BMP_temperature;BMP_pressure;BME280_temperature;BME280_humidity;BME280_pressure;Samples;Min_cycle;Max_cycle;Signal;HPM_P1;HPM_P2
2021/09/15 00:00:47;;;;;;;8.15;4.53;;;;;;;15.86;64.14;99706.55;1741280;80;21275;-39
2021/09/15 00:03:14;;;;;;;9.83;4.85;;;;;;;15.76;63.78;99708.66;1743898;80;21130;-39
2021/09/15 00:05:41;;;;;;;5.50;4.12;;;;;;;15.62;64.01;99705.87;1750969;82;21036;-39
2021/09/15 00:08:10;;;;;;;8.63;4.67;;;;;;;15.53;64.32;99704.86;1737731;82;20969;-39
2021/09/15 00:10:40;;;;;;;5.77;4.53;;;;;;;15.47;64.46;99698.16;1745403;82;20949;-39
2021/09/15 00:13:06;;;;;;;6.58;5.05;;;;;;;15.43;64.63;99702.05;1695605;83;21018;-39
2021/09/15 00:15:33;;;;;;;6.15;4.20;;;;;;;15.40;64.72;99700.84;1723236;82;21146;-39
2021/09/15 00:18:01;;;;;;;6.67;5.20;;;;;;;15.44;64.57;99696.18;1744931;82;20973;-39
2021/09/15 00:20:30;;;;;;;7.08;4.37;;;;;;;15.46;64.39;99697.17;1741131;82;20957;-39
2021/09/15 00:22:56;;;;;;;12.28;5.42;;;;;;;15.43;64.29;99710.25;1751163;81;21068;-39
2021/09/15 00:25:24;;;;;;;9.48;5.05;;;;;;;15.31;64.24;99713.29;1757613;80;21028;-39
2021/09/15 00:27:52;;;;;;;8.85;5.47;;;;;;;15.15;64.46;99709.52;1724726;80;22007;-39
2021/09/15 00:30:19;;;;;;;7.42;4.97;;;;;;;15.06;64.53;99710.41;1739358;81;21016;-39
2021/09/15 00:32:45;;;;;;;7.30;4.75;;;;;;;15.02;64.38;99714.48;1724283;82;21538;-39
2021/09/15 00:35:12;;;;;;;6.72;4.90;;;;;;;14.96;64.40;99711.91;1721289;83;21036;-39
2021/09/15 00:37:40;;;;;;;5.53;4.45;;;;;;;14.86;64.61;99715.38;1733855;82;21551;-39
2021/09/15 00:40:09;;;;;;;7.45;4.25;;;;;;;14.82;64.71;99721.36;1743247;82;21901;-39
2021/09/15 00:42:35;;;;;;;5.65;4.20;;;;;;;14.83;64.46;99723.52;1739971;82;21020;-39
2021/09/15 00:45:04;;;;;;;7.22;4.80;;;;;;;14.83;64.17;99725.67;1728524;82;20984;-39
2021/09/15 00:47:31;;;;;;;6.78;5.03;;;;;;;14.81;63.97;99723.12;1746345;82;21045;-39
2021/09/15 00:49:59;;;;;;;6.12;4.20;;;;;;;14.79;63.87;99725.65;1749208;82;21468;-39
2021/09/15 00:52:26;;;;;;;6.97;4.62;;;;;;;14.78;63.68;99723.28;1728382;82;21202;-39
2021/09/15 00:54:53;;;;;;;5.97;4.53;;;;;;;14.75;63.61;99728.94;1697854;82;21048;-39
2021/09/15 00:57:20;;;;;;;5.70;4.33;;;;;;;14.72;63.58;99732.41;1751139;82;21076;-39
2021/09/15 00:59:48;;;;;;;7.05;3.85;;;;;;;14.69;64.06;99729.66;1748781;82;21037;-39
2021/09/15 01:02:15;;;;;;;6.83;4.33;;;;;;;14.65;64.28;99734.30;1734068;82;21526;-39
2021/09/15 01:04:44;;;;;;;7.47;4.50;;;;;;;14.63;64.19;99737.39;1728652;82;21825;-39
2021/09/15 01:07:13;;;;;;;6.95;4.28;;;;;;;14.65;64.10;99735.09;1720905;83;20993;-39
2021/09/15 01:09:42;;;;;;;7.45;5.47;;;;;;;14.67;64.05;99734.69;1741617;82;21052;-39
2021/09/15 01:12:12;;;;;;;8.40;5.20;;;;;;;14.64;64.02;99740.91;1735726;82;21025;-39
2021/09/15 01:14:41;;;;;;;7.53;5.30;;;;;;;14.62;64.07;99743.25;1749683;82;21041;-39
2021/09/15 01:17:26;;;;;;;6.83;5.65;;;;;;;14.58;64.02;99745.14;1734005;82;21092;-39
2021/09/15 01:20:12;;;;;;;7.72;5.10;;;;;;;14.54;64.13;99745.12;1716977;82;20984;-39
2021/09/15 01:22:41;;;;;;;5.65;4.72;;;;;;;14.46;64.10;99747.59;1740301;82;20933;-39
2021/09/15 01:25:27;;;;;;;5.40;4.35;;;;;;;14.42;64.27;99748.71;1751304;82;21053;-39
2021/09/15 01:28:12;;;;;;;4.15;3.52;;;;;;;14.35;64.39;99752.11;1750302;82;21060;-39
2021/09/15 01:30:45;;;;;;;4.42;3.92;;;;;;;14.36;64.28;99755.09;1749548;82;21511;-39
2021/09/15 01:33:14;;;;;;;4.50;4.10;;;;;;;14.39;64.28;99757.63;1730030;82;21039;-39
2021/09/15 01:35:42;;;;;;;7.35;4.17;;;;;;;14.39;64.21;99748.87;1721797;82;21000;-39
2021/09/15 01:38:10;;;;;;;6.28;4.62;;;;;;;14.38;64.17;99749.27;1739562;82;21049;-39
2021/09/15 01:40:38;;;;;;;31.57;4.37;;;;;;;14.31;64.20;99745.27;1730424;82;21325;-39
2021/09/15 01:43:05;;;;;;;7.40;4.45;;;;;;;14.20;64.38;99740.28;1738938;81;21149;-39
2021/09/15 01:45:32;;;;;;;6.65;4.20;;;;;;;14.07;64.74;99740.34;1737417;80;21004;-39
2021/09/15 01:48:00;;;;;;;4.28;3.85;;;;;;;14.00;65.21;99742.19;1741494;80;21035;-39
2021/09/15 01:50:29;;;;;;;4.75;3.65;;;;;;;13.96;65.40;99742.16;1720678;82;21045;-39
2021/09/15 01:52:56;;;;;;;4.70;3.62;;;;;;;13.96;65.48;99743.52;1721304;83;21096;-39
2021/09/15 01:55:27;;;;;;;5.75;3.52;;;;;;;13.98;65.38;99743.95;1730380;81;21135;-39
2021/09/15 01:57:55;;;;;;;5.92;4.30;;;;;;;13.91;64.00;99746.58;1735315;82;20995;-39
2021/09/15 02:00:33;;;;;;;5.03;4.53;;;;;;;13.64;63.57;99746.45;1656717;86;21797;-39
2021/09/15 02:03:03;;;;;;;12.33;4.80;;;;;;;13.31;64.08;99755.36;1716173;83;21057;-39
2021/09/15 02:05:33;;;;;;;6.55;4.53;;;;;;;13.14;64.34;99755.87;1732020;82;20981;-39
2021/09/15 02:08:01;;;;;;;41.65;4.60;;;;;;;13.01;64.66;99756.63;1735993;82;21156;-39
2021/09/15 02:10:38;;;;;;;23.67;4.60;;;;;;;12.96;64.61;99756.94;1738317;82;21028;-39
2021/09/15 02:13:07;;;;;;;5.22;4.15;;;;;;;12.81;64.80;99755.14;1722462;82;20973;-39
2021/09/15 02:15:36;;;;;;;4.08;3.08;;;;;;;12.68;65.15;99755.13;1734447;82;21504;-39
2021/09/15 02:18:03;;;;;;;3.77;2.62;;;;;;;12.63;65.22;99755.62;1723686;82;21049;-39
2021/09/15 02:20:41;;;;;;;5.47;2.58;;;;;;;12.66;65.11;99756.05;1711225;82;21159;-39
2021/09/15 02:23:09;;;;;;;3.58;2.50;;;;;;;12.62;65.22;99767.67;1712824;83;22188;-39
2021/09/15 02:25:43;;;;;;;3.58;2.22;;;;;;;12.53;65.42;99763.05;1693502;82;21041;-39
2021/09/15 02:28:13;;;;;;;2.70;2.33;;;;;;;12.53;65.50;99760.90;1725354;82;20946;-39
2021/09/15 02:30:44;;;;;;;5.75;2.00;;;;;;;12.53;65.58;99760.33;1723844;82;21116;-39
2021/09/15 02:33:14;;;;;;;9.93;1.87;;;;;;;12.53;65.66;99763.63;1742688;82;21217;-39
2021/09/15 02:35:43;;;;;;;3.50;1.87;;;;;;;12.53;65.88;99768.48;1717619;82;21622;-39
2021/09/15 02:38:21;;;;;;;1.70;1.60;;;;;;;12.53;66.05;99769.84;1694948;82;21053;-39
2021/09/15 02:41:05;;;;;;;1.80;1.70;;;;;;;12.57;65.74;99768.55;1691645;84;21531;-39
2021/09/15 02:43:33;;;;;;;2.52;2.17;;;;;;;12.64;65.46;99770.80;1709922;82;21025;-39
2021/09/15 02:46:03;;;;;;;2.35;2.15;;;;;;;12.71;65.36;99773.44;1687579;82;21157;-39
2021/09/15 02:48:31;;;;;;;3.05;2.40;;;;;;;12.74;65.31;99768.61;1736976;82;21630;-39
2021/09/15 02:51:09;;;;;;;3.37;3.08;;;;;;;12.77;65.38;99776.06;1741542;82;21005;-39
2021/09/15 02:53:40;;;;;;;3.92;3.55;;;;;;;12.79;65.53;99772.39;1715794;82;21029;-39
2021/09/15 02:56:27;;;;;;;3.87;3.47;;;;;;;12.83;65.59;99773.27;1726337;82;21061;-39
2021/09/15 02:58:59;;;;;;;4.83;3.62;;;;;;;12.82;65.67;99775.19;1684785;82;21341;-39
2021/09/15 03:01:36;;;;;;;4.85;3.87;;;;;;;12.83;65.79;99771.91;1712542;82;21032;-39
2021/09/15 03:04:14;;;;;;;4.53;4.08;;;;;;;12.85;66.16;99777.17;1719119;82;21004;-39
2021/09/15 03:06:43;;;;;;;3.02;2.72;;;;;;;12.92;66.40;99773.22;1747295;80;21435;-39
2021/09/15 03:09:11;;;;;;;8.63;3.75;;;;;;;12.98;66.58;99778.55;1743065;81;21077;-39
2021/09/15 03:11:37;;;;;;;5.03;4.30;;;;;;;13.02;66.72;99779.98;1714920;82;21147;-39
2021/09/15 03:14:06;;;;;;;11.73;3.67;;;;;;;13.06;66.82;99782.18;1714263;82;20934;-39
2021/09/15 03:16:33;;;;;;;5.17;4.12;;;;;;;13.10;66.70;99786.31;1722165;82;20965;-39
2021/09/15 03:19:03;;;;;;;;;;;;;;;13.10;66.61;99783.02;1716319;82;20997;-39
2021/09/15 03:21:32;;;;;;;5.22;3.62;;;;;;;13.11;66.56;99784.62;1715647;82;20576;-39
2021/09/15 03:23:58;;;;;;;4.45;3.35;;;;;;;12.99;66.84;99780.70;1732266;82;21199;-39
2021/09/15 03:26:26;;;;;;;6.92;4.40;;;;;;;13.01;66.80;99782.48;1729932;82;21064;-39
2021/09/15 03:28:53;;;;;;;8.23;4.47;;;;;;;13.06;66.76;99785.69;1713788;82;21022;-39
2021/09/15 03:31:19;;;;;;;17.20;4.10;;;;;;;13.07;66.89;99779.07;1722635;81;21009;-39
2021/09/15 03:33:47;;;;;;;4.58;4.00;;;;;;;13.11;66.64;99779.72;1731668;82;21053;-39
2021/09/15 03:36:15;;;;;;;3.60;3.20;;;;;;;13.13;66.46;99785.02;1741177;82;21085;-39
2021/09/15 03:38:42;;;;;;;4.70;3.77;;;;;;;13.13;66.22;99779.58;1729849;82;21028;-39
2021/09/15 03:41:08;;;;;;;4.28;3.83;;;;;;;13.14;65.98;99783.88;1731881;80;21092;-39
2021/09/15 03:43:37;;;;;;;4.12;3.20;;;;;;;13.13;65.81;99784.23;1730063;82;20945;-39
2021/09/15 03:46:03;;;;;;;3.10;2.80;;;;;;;13.10;65.58;99788.46;1723825;82;21568;-39
2021/09/15 03:48:31;;;;;;;3.25;2.58;;;;;;;13.08;65.33;99790.75;1729560;82;21146;-39
2021/09/15 03:50:58;;;;;;;2.98;2.50;;;;;;;13.08;65.14;99788.02;1742747;82;21029;-39
2021/09/15 03:53:25;;;;;;;2.80;2.40;;;;;;;13.12;65.01;99792.98;1740904;82;20970;-39
2021/09/15 03:55:53;;;;;;;3.98;2.80;;;;;;;13.14;64.77;99790.69;1729031;82;21041;-39
2021/09/15 03:58:21;;;;;;;2.72;2.50;;;;;;;12.79;64.50;99739.74;1743176;82;21014;-39
2021/09/15 04:00:48;;;;;;;3.15;2.83;;;;;;;13.13;64.43;99790.47;1729689;82;21725;-39
2021/09/15 04:03:16;;;;;;;3.33;3.02;;;;;;;13.12;64.23;99792.22;1730432;80;21052;-39
2021/09/15 04:05:42;;;;;;;3.08;2.77;;;;;;;13.10;64.24;99791.75;1740729;82;21024;-39
2021/09/15 04:08:11;;;;;;;4.95;3.22;;;;;;;13.08;64.35;99797.55;1741552;82;21021;-39
2021/09/15 04:10:39;;;;;;;3.40;3.00;;;;;;;13.03;64.39;99793.78;1719973;82;21018;-39
2021/09/15 04:13:08;;;;;;;3.72;3.00;;;;;;;12.99;64.45;99801.11;1714050;82;21073;-39
2021/09/15 04:15:35;;;;;;;4.72;3.22;;;;;;;12.96;64.46;99801.84;1717002;82;21012;-39
2021/09/15 04:18:04;;;;;;;5.72;2.87;;;;;;;12.95;64.41;99803.78;1725902;82;21582;-39
2021/09/15 04:20:30;;;;;;;4.20;2.92;;;;;;;13.00;64.42;99802.69;1730085;82;21016;-38
2021/09/15 04:22:58;;;;;;;2.83;2.58;;;;;;;13.03;64.49;99796.50;1693159;83;21590;-39
2021/09/15 04:31:19;;;;;;;3.80;3.08;;;;;;;13.07;64.69;99809.59;1742753;82;21025;-39
2021/09/15 04:33:44;;;;;;;3.10;2.80;;;;;;;13.07;64.77;99804.93;1739914;82;20977;-39
2021/09/15 04:36:11;;;;;;;6.85;2.77;;;;;;;13.07;64.82;99809.02;1719409;82;21544;-39
2021/09/15 04:38:39;;;;;;;3.37;3.00;;;;;;;13.07;64.92;99815.81;1721973;82;21188;-39
2021/09/15 04:41:08;;;;;;;2.83;2.60;;;;;;;13.08;65.03;99812.52;1729567;82;21962;-39
2021/09/15 04:43:35;;;;;;;3.05;2.75;;;;;;;13.11;65.06;99821.91;1678617;85;20936;-38
2021/09/15 04:46:02;;;;;;;3.40;2.90;;;;;;;13.14;65.26;99810.31;1713866;82;21025;-39
2021/09/15 04:48:29;;;;;;;6.47;2.60;;;;;;;13.20;65.32;99818.39;1725239;82;20962;-39
2021/09/15 04:50:56;;;;;;;3.02;2.50;;;;;;;13.17;65.48;99817.17;1735542;81;21080;-39
2021/09/15 04:53:23;;;;;;;3.52;2.67;;;;;;;13.16;65.79;99816.98;1728514;82;21049;-39
2021/09/15 04:55:50;;;;;;;5.70;2.60;;;;;;;12.90;65.94;99772.00;1739753;81;21471;-39
2021/09/15 04:58:17;;;;;;;3.45;2.80;;;;;;;13.27;66.04;99824.72;1725332;82;21008;-39
2021/09/15 05:00:45;;;;;;;3.30;2.83;;;;;;;13.34;66.13;99828.92;1730177;81;21116;-39
2021/09/15 05:03:12;;;;;;;5.05;2.98;;;;;;;13.43;66.13;99825.36;1742016;82;21135;-39
2021/09/15 05:05:41;;;;;;;3.83;3.05;;;;;;;13.56;66.11;99832.73;1733002;82;21060;-38
2021/09/15 05:08:09;;;;;;;3.35;2.67;;;;;;;13.69;66.08;99830.59;1744365;81;21032;-39
2021/09/15 05:10:37;;;;;;;4.80;2.52;;;;;;;13.76;66.16;99832.03;1741930;81;21367;-39
2021/09/15 05:13:04;;;;;;;4.17;2.90;;;;;;;13.86;66.14;99830.03;1718930;82;21579;-39
2021/09/15 05:18:09;;;;;;;6.60;3.75;;;;;;;14.06;65.76;99832.83;1802597;78;23277;-39
2021/09/15 05:20:37;;;;;;;7.87;3.80;;;;;;;14.01;65.90;99840.54;1786860;80;21547;-39
2021/09/15 05:23:04;;;;;;;3.77;3.27;;;;;;;14.07;65.88;99842.58;1777248;80;21132;-39
2021/09/15 05:25:33;;;;;;;5.17;3.22;;;;;;;14.17;65.91;99843.30;1773068;79;20890;-38
2021/09/15 05:28:01;;;;;;;5.60;3.30;;;;;;;14.29;65.83;99844.39;1743292;80;20985;-39
2021/09/15 05:30:30;;;;;;;5.58;3.55;;;;;;;14.40;65.73;99851.95;1775366;79;21033;-39
2021/09/15 05:32:59;;;;;;;4.80;3.87;;;;;;;14.46;65.67;99851.83;1757281;80;21575;-39
2021/09/15 05:35:26;;;;;;;6.22;4.25;;;;;;;14.55;65.71;99847.64;1777210;80;21125;-39
2021/09/15 05:37:56;;;;;;;8.38;4.28;;;;;;;14.64;65.59;99856.89;1776973;80;20996;-39
2021/09/15 05:40:23;;;;;;;7.62;4.33;;;;;;;14.71;65.20;99861.06;1775372;80;20928;-39
2021/09/15 05:42:50;;;;;;;8.55;4.42;;;;;;;14.76;64.71;99861.48;1778482;80;21641;-39
2021/09/15 05:45:18;;;;;;;5.92;3.90;;;;;;;14.81;64.39;99863.70;1784913;80;21037;-39
2021/09/15 05:47:45;;;;;;;8.45;4.20;;;;;;;14.85;63.99;99861.20;1770685;80;21147;-39
2021/09/15 05:50:12;;;;;;;5.95;3.62;;;;;;;14.93;63.41;99863.41;1772523;80;21009;-39
2021/09/15 05:52:41;;;;;;;6.33;3.50;;;;;;;14.99;62.85;99861.91;1773499;80;21494;-39
2021/09/15 05:55:09;;;;;;;7.22;3.35;;;;;;;15.07;62.84;99862.95;1773266;80;21010;-39
2021/09/15 05:57:35;;;;;;;4.42;3.10;;;;;;;15.14;62.64;99861.67;1702699;82;22225;-39
2021/09/15 06:00:03;;;;;;;4.62;2.95;;;;;;;15.23;62.64;99862.13;1702332;83;21142;-39
2021/09/15 06:02:32;;;;;;;12.05;4.37;;;;;;;15.32;62.57;99863.16;1719565;82;21035;-39
2021/09/15 06:05:00;;;;;;;7.62;3.92;;;;;;;15.37;62.61;99862.81;1738574;82;21484;-39
2021/09/15 06:07:29;;;;;;;10.10;4.35;;;;;;;15.42;62.66;99867.14;1694026;83;20989;-39
2021/09/15 06:09:56;;;;;;;8.18;4.78;;;;;;;15.49;63.06;99868.57;1719756;83;21018;-39
2021/09/15 06:12:23;;;;;;;11.18;5.83;;;;;;;15.56;62.86;99873.52;1708469;83;21206;-39
2021/09/15 06:14:52;;;;;;;6.08;4.10;;;;;;;15.63;62.24;99874.16;1734383;82;21036;-39
2021/09/15 06:17:19;;;;;;;6.87;4.83;;;;;;;15.67;61.43;99876.33;1721527;83;20974;-39
2021/09/15 06:19:46;;;;;;;7.37;4.33;;;;;;;15.71;61.28;99877.13;1714509;83;21013;-39
2021/09/15 06:22:19;;;;;;;6.70;3.90;;;;;;;15.76;60.93;99870.52;1756140;80;21625;-39
2021/09/15 06:25:07;;;;;;;5.83;4.35;;;;;;;15.80;60.33;99871.33;1777743;79;21135;-39
2021/09/15 06:27:36;;;;;;;4.60;3.27;;;;;;;15.82;59.71;99875.26;1780807;80;20996;-39
2021/09/15 06:30:05;;;;;;;5.60;3.00;;;;;;;15.87;59.24;99872.17;1787297;79;21556;-39
2021/09/15 06:32:31;;;;;;;6.95;3.05;;;;;;;15.94;59.55;99880.97;1779581;79;21538;-39
2021/09/15 06:34:58;;;;;;;4.30;2.67;;;;;;;15.97;59.10;99876.91;1776151;80;20964;-39
2021/09/15 06:37:25;;;;;;;4.22;2.37;;;;;;;16.06;59.48;99882.03;1777045;80;21126;-39
2021/09/15 06:39:52;;;;;;;7.35;2.20;;;;;;;16.18;58.89;99880.89;1784290;80;21641;-39
2021/09/15 06:42:18;;;;;;;5.47;2.50;;;;;;;16.34;58.60;99890.94;1784895;80;20964;-39
2021/09/15 06:44:45;;;;;;;4.95;2.52;;;;;;;16.51;58.28;99886.89;1780579;80;21012;-39
2021/09/15 06:47:12;;;;;;;6.25;2.10;;;;;;;16.64;58.05;99879.16;1777661;80;21731;-39
2021/09/15 06:49:38;;;;;;;3.25;2.08;;;;;;;16.79;57.07;99888.19;1777689;80;21087;-39
2021/09/15 06:52:05;;;;;;;5.67;2.50;;;;;;;16.94;56.15;99890.54;1779997;80;20968;-39
2021/09/15 06:54:33;;;;;;;3.70;2.22;;;;;;;17.08;56.03;99889.80;1779722;80;20989;-39
2021/09/15 06:56:59;;;;;;;5.97;2.37;;;;;;;17.22;54.49;99893.92;1781156;79;21067;-39
2021/09/15 06:59:27;;;;;;;2.98;1.70;;;;;;;17.33;53.31;99894.69;1782602;80;21017;-39
2021/09/15 07:01:55;;;;;;;3.75;1.90;;;;;;;17.47;52.67;99903.52;1761088;80;21484;-39
2021/09/15 07:04:22;;;;;;;28.40;3.83;;;;;;;17.55;50.53;99891.95;1713269;83;21327;-39
2021/09/15 07:06:48;;;;;;;4.75;2.00;;;;;;;17.58;49.95;99900.16;1780378;79;20986;-39
2021/09/15 07:09:15;;;;;;;10.18;2.52;;;;;;;17.60;49.25;99889.63;1772725;79;21558;-39
2021/09/15 07:11:43;;;;;;;7.47;2.62;;;;;;;17.63;49.42;99894.31;1784169;80;21008;-39
2021/09/15 07:14:10;;;;;;;3.92;2.02;;;;;;;17.66;49.96;99897.66;1768150;79;21122;-39
2021/09/15 07:16:38;;;;;;;3.37;1.85;;;;;;;17.66;48.96;99891.39;1768102;80;21567;-39
2021/09/15 07:19:06;;;;;;;4.03;2.05;;;;;;;17.69;49.23;99887.26;1776356;79;21005;-40
2021/09/15 07:21:35;;;;;;;9.03;2.72;;;;;;;17.75;48.75;99890.39;1773088;80;21007;-40
2021/09/15 07:24:03;;;;;;;5.03;1.90;;;;;;;17.79;48.25;99890.57;1779026;80;21484;-40
2021/09/15 07:26:30;;;;;;;2.67;1.90;;;;;;;17.80;47.83;99890.77;1765916;79;21512;-40
2021/09/15 07:28:57;;;;;;;3.75;1.62;;;;;;;17.83;47.92;99892.52;1783969;79;21018;-40
2021/09/15 07:31:23;;;;;;;5.10;1.90;;;;;;;17.87;47.65;99885.05;1779466;79;21016;-40
2021/09/15 07:33:50;;;;;;;4.62;1.82;;;;;;;17.95;47.75;99889.37;1779346;80;21053;-40
2021/09/15 07:36:16;;;;;;;7.22;2.00;;;;;;;18.06;47.75;99888.73;1778764;80;21508;-40
2021/09/15 07:38:43;;;;;;;4.42;1.67;;;;;;;18.16;46.65;99885.17;1770742;79;21858;-40
2021/09/15 07:41:10;;;;;;;3.40;1.60;;;;;;;18.27;47.24;99886.51;1772366;80;21544;-40
2021/09/15 07:43:36;;;;;;;3.85;1.85;;;;;;;18.39;46.76;99890.98;1783711;80;20974;-40
2021/09/15 07:46:03;;;;;;;6.70;1.47;;;;;;;18.54;46.36;99886.24;1776316;79;21096;-40
2021/09/15 07:48:30;;;;;;;2.85;1.77;;;;;;;18.68;46.47;99877.92;1731038;79;21005;-40
2021/09/15 07:50:56;;;;;;;4.33;1.52;;;;;;;18.82;45.83;99878.42;1774303;79;21105;-40
2021/09/15 07:53:23;;;;;;;5.92;1.77;;;;;;;18.96;44.84;99876.95;1774825;80;21021;-40
2021/09/15 07:55:52;;;;;;;3.33;1.70;;;;;;;19.11;44.56;99872.92;1768163;79;20924;-40
2021/09/15 07:58:19;;;;;;;2.62;1.55;;;;;;;19.30;44.32;99877.09;1759052;79;21804;-40
2021/09/15 08:00:47;;;;;;;4.95;1.55;;;;;;;19.45;43.76;99876.60;1769725;79;21012;-41
2021/09/15 08:03:14;;;;;;;3.90;1.77;;;;;;;19.59;42.80;99877.06;1780445;79;21915;-40
2021/09/15 08:05:41;;;;;;;3.35;2.10;;;;;;;19.70;43.30;99876.38;1774966;80;20976;-40
2021/09/15 08:08:11;;;;;;;4.60;1.90;;;;;;;19.77;43.78;99876.28;1740154;80;21052;-40
2021/09/15 08:10:36;;;;;;;5.10;2.00;;;;;;;19.85;43.36;99870.88;1713670;81;21030;-40
2021/09/15 08:13:03;;;;;;;3.72;1.90;;;;;;;19.92;42.97;99872.80;1740604;81;21075;-40
2021/09/15 08:15:30;;;;;;;3.15;1.90;;;;;;;20.02;42.97;99871.89;1741368;80;22350;-40
2021/09/15 08:17:57;;;;;;;3.47;1.87;;;;;;;20.14;42.99;99876.85;1728604;82;20974;-41
2021/09/15 08:20:25;;;;;;;4.70;1.90;;;;;;;20.25;42.85;99874.76;1725621;82;21428;-40
2021/09/15 08:22:52;;;;;;;5.70;2.30;;;;;;;20.33;42.21;99872.13;1725095;81;21025;-40
2021/09/15 08:25:20;;;;;;;3.37;2.05;;;;;;;20.42;41.44;99872.23;1725404;81;21088;-40
2021/09/15 08:27:46;;;;;;;3.02;1.52;;;;;;;20.53;41.51;99867.34;1739182;81;21101;-40
2021/09/15 08:30:14;;;;;;;5.87;1.80;;;;;;;20.61;40.92;99868.83;1725499;82;20893;-40
2021/09/15 08:32:41;;;;;;;3.85;1.90;;;;;;;20.73;40.64;99871.01;1732836;82;20958;-40
2021/09/15 08:35:09;;;;;;;2.52;1.85;;;;;;;20.79;40.41;99871.52;1735875;81;21033;-40
2021/09/15 08:37:37;;;;;;;3.05;1.70;;;;;;;20.81;39.77;99872.48;1729893;81;21003;-40
2021/09/15 08:40:06;;;;;;;6.55;2.20;;;;;;;20.73;39.35;99874.55;1745410;81;21793;-40
2021/09/15 08:42:33;;;;;;;7.17;1.98;;;;;;;20.68;38.75;99865.37;1740766;82;21014;-40
2021/09/15 08:45:07;;;;;;;6.45;1.67;;;;;;;20.64;38.97;99867.40;1739841;82;21009;-40
2021/09/15 08:47:37;;;;;;;4.10;1.75;;;;;;;20.65;40.30;99865.42;1743158;81;21040;-40
2021/09/15 08:50:05;;;;;;;;;;;;;;;20.75;39.84;99858.98;1726344;82;20960;-40
2021/09/15 08:52:31;;;;;;;5.55;1.85;;;;;;;20.73;39.36;99852.50;1728337;82;21122;-40
2021/09/15 08:54:58;;;;;;;2.90;1.80;;;;;;;20.53;39.54;99850.82;1735328;81;21488;-40
2021/09/15 08:57:24;;;;;;;3.65;1.80;;;;;;;20.53;40.03;99846.09;1742328;81;21025;-40
2021/09/15 08:59:52;;;;;;;4.00;2.00;;;;;;;20.63;40.90;99847.92;1740515;81;21519;-40
2021/09/15 09:02:18;;;;;;;4.10;1.80;;;;;;;20.73;39.40;99853.09;1740537;81;20978;-40
2021/09/15 09:05:03;;;;;;;5.20;2.17;;;;;;;20.74;39.00;99856.04;1685609;82;21098;-40
2021/09/15 09:07:31;;;;;;;8.40;1.92;;;;;;;20.78;39.44;99857.55;1740130;82;21022;-40
2021/09/15 09:10:03;;;;;;;3.95;2.33;;;;;;;20.87;39.30;99858.99;1740574;82;21012;-40
2021/09/15 09:12:31;;;;;;;3.52;1.75;;;;;;;21.01;40.04;99853.29;1740411;82;21032;-40
2021/09/15 09:15:28;;;;;;;2.60;1.90;;;;;;;21.13;39.09;99853.50;1740700;82;21070;-40
2021/09/15 09:18:00;;;;;;;4.72;2.10;;;;;;;21.26;39.84;99856.44;1707000;83;21688;-41
2021/09/15 09:20:32;;;;;;;3.15;1.70;;;;;;;21.45;39.32;99853.55;1708720;82;20965;-41
2021/09/15 09:23:16;;;;;;;3.47;1.72;;;;;;;21.62;38.75;99852.47;1690532;83;21085;-41
2021/09/15 09:25:56;;;;;;;8.70;1.70;;;;;;;21.87;37.88;99850.03;1727276;81;21015;-41
2021/09/15 09:28:34;;;;;;;;;;;;;;;22.11;37.02;99853.53;1727358;81;21089;-41
2021/09/15 09:31:08;;;;;;;3.60;1.70;;;;;;;22.20;34.95;99851.58;1700919;84;21092;-41
2021/09/15 09:33:45;;;;;;;2.92;2.00;;;;;;;22.02;35.40;99841.69;1700753;83;21041;-41
2021/09/15 09:36:12;;;;;;;5.00;2.02;;;;;;;22.05;36.52;99839.44;1726681;81;21543;-41
2021/09/15 09:38:44;;;;;;;7.45;2.17;;;;;;;22.18;36.04;99842.33;1756956;81;21017;-41
2021/09/15 09:41:20;;;;;;;3.22;1.82;;;;;;;22.29;35.10;99840.73;1764756;81;21109;-41
2021/09/15 09:43:53;;;;;;;2.17;1.55;;;;;;;22.47;33.92;99834.99;1766697;81;20986;-41
2021/09/15 09:46:33;;;;;;;2.25;1.70;;;;;;;22.51;34.14;99837.07;1729942;82;21041;-41
2021/09/15 09:49:03;;;;;;;4.60;1.80;;;;;;;22.36;33.14;99840.59;1730110;83;21546;-41
2021/09/15 09:51:41;;;;;;;3.62;1.95;;;;;;;22.17;34.20;99838.03;1741779;82;21065;-41
2021/09/15 09:54:21;;;;;;;4.80;1.75;;;;;;;22.27;34.89;99837.63;1742853;82;21069;-41
2021/09/15 09:56:50;;;;;;;2.40;1.57;;;;;;;22.49;34.69;99826.28;1743045;82;21603;-41
2021/09/15 09:59:17;;;;;;;4.28;1.77;;;;;;;22.75;34.23;99821.16;1731076;82;20996;-41
2021/09/15 10:01:51;;;;;;;4.08;1.90;;;;;;;22.91;34.15;99824.55;1742684;82;21012;-41
2021/09/15 10:04:19;;;;;;;2.62;1.65;;;;;;;23.02;33.32;99828.44;1742764;82;21012;-41
2021/09/15 10:06:46;;;;;;;6.70;1.98;;;;;;;23.09;33.02;99825.52;1735320;82;21108;-41
2021/09/15 10:09:13;;;;;;;3.98;2.00;;;;;;;23.21;32.43;99815.12;1731761;82;21140;-41
2021/09/15 10:11:41;;;;;;;3.55;1.95;;;;;;;23.34;33.30;99814.58;1702843;82;20926;-41
2021/09/15 10:14:13;;;;;;;7.42;2.52;;;;;;;23.52;32.79;99814.16;1703407;83;20986;-41
2021/09/15 10:16:54;;;;;;;6.28;2.52;;;;;;;23.75;33.01;99814.70;1734475;81;20957;-41
2021/09/15 10:19:31;;;;;;;3.30;2.10;;;;;;;24.01;32.95;99813.41;1753733;80;21041;-42
2021/09/15 10:21:59;;;;;;;3.47;1.80;;;;;;;24.17;31.50;99810.56;1744447;80;21158;-42
2021/09/15 10:24:54;;;;;;;2.60;1.77;;;;;;;24.24;31.56;99806.99;1779120;80;21441;-42
2021/09/15 10:27:24;;;;;;;4.20;2.20;;;;;;;24.37;31.88;99798.69;1692539;82;21079;-42
2021/09/15 10:30:13;;;;;;;3.40;1.90;;;;;;;24.44;31.65;99799.86;1759334;80;21298;-42
2021/09/15 10:32:46;;;;;;;4.22;2.10;;;;;;;24.46;30.52;99794.64;1765229;80;21611;-39
2021/09/15 10:35:12;;;;;;;3.70;1.82;;;;;;;24.37;31.86;99798.69;1756980;80;21586;-38
2021/09/15 10:37:44;;;;;;;3.60;1.90;;;;;;;24.48;31.76;99786.67;1758254;80;21028;-40
2021/09/15 10:40:12;;;;;;;2.30;1.75;;;;;;;24.63;29.93;99785.01;1759747;80;20949;-40
2021/09/15 10:45:22;;;;;;;5.05;1.50;;;;;;;24.76;30.08;99782.83;1761529;80;21084;-39
2021/09/15 10:48:00;;;;;;;3.87;1.72;;;;;;;24.72;30.66;99778.78;1750131;82;20987;-39
2021/09/15 10:50:34;;;;;;;3.25;1.27;;;;;;;24.74;31.24;99786.67;1757922;81;21042;-40
2021/09/15 10:53:13;;;;;;;2.15;1.30;;;;;;;24.79;31.25;99784.09;1736948;81;21029;-43
2021/09/15 10:55:53;;;;;;;1.77;1.47;;;;;;;24.94;30.92;99777.49;1756863;81;21527;-39
2021/09/15 10:58:27;;;;;;;4.72;1.45;;;;;;;25.09;30.31;99777.19;1756684;81;21087;-40
2021/09/15 11:01:04;;;;;;;2.17;1.50;;;;;;;25.27;30.63;99777.35;1757008;81;21086;-39
2021/09/15 11:03:41;;;;;;;2.98;1.50;;;;;;;25.54;30.67;99774.05;1754658;80;21575;-39
2021/09/15 11:06:17;;;;;;;2.15;1.70;;;;;;;25.76;30.54;99771.29;1751166;80;20992;-39
2021/09/15 11:08:47;;;;;;;2.70;1.20;;;;;;;25.93;30.42;99760.15;1740881;80;21019;-40
2021/09/15 11:11:25;;;;;;;3.62;1.32;;;;;;;26.14;29.93;99762.10;1753761;80;21015;-39
2021/09/15 11:14:02;;;;;;;3.70;1.52;;;;;;;26.29;29.64;99764.53;1756909;81;21022;-40
2021/09/15 11:16:41;;;;;;;3.90;1.42;;;;;;;26.39;29.00;99761.95;1761130;81;20985;-40
2021/09/15 11:19:18;;;;;;;2.77;1.43;;;;;;;26.50;29.37;99757.97;1766783;80;21586;-40
2021/09/15 11:21:53;;;;;;;1.98;1.22;;;;;;;26.66;28.74;99755.72;1759611;80;21048;-40
2021/09/15 11:24:22;;;;;;;3.40;1.40;;;;;;;26.81;28.56;99754.53;1735688;80;21018;-40
2021/09/15 11:26:55;;;;;;;2.85;1.50;;;;;;;26.89;28.36;99752.23;1725174;83;20988;-40
2021/09/15 11:29:45;;;;;;;4.30;1.35;;;;;;;26.99;28.92;99742.06;1749509;80;21029;-40
2021/09/15 11:32:16;;;;;;;4.72;1.57;;;;;;;27.17;29.04;99735.11;1692598;84;21547;-40
2021/09/15 11:34:50;;;;;;;2.67;1.20;;;;;;;27.32;28.04;99735.89;1721726;82;21621;-40
2021/09/15 11:37:28;;;;;;;2.67;1.40;;;;;;;27.46;27.50;99733.87;1722480;82;21524;-40
2021/09/15 11:40:03;;;;;;;2.30;1.25;;;;;;;27.61;27.37;99721.66;1726617;82;21119;-40
2021/09/15 11:42:32;;;;;;;2.35;1.35;;;;;;;27.82;27.76;99726.13;1711877;82;21548;-40
2021/09/15 11:45:17;;;;;;;3.77;3.10;;;;;;;28.01;27.11;99722.81;1720443;82;21060;-40
2021/09/15 11:47:45;;;;;;;2.30;1.60;;;;;;;28.23;26.70;99719.03;1700487;83;21002;-40
2021/09/15 11:50:21;;;;;;;2.50;1.40;;;;;;;28.47;26.19;99721.24;1713033;83;21102;-40
2021/09/15 11:52:56;;;;;;;6.35;3.58;;;;;;;28.38;25.96;99717.88;1694014;83;21708;-40
2021/09/15 11:55:23;;;;;;;4.65;1.90;;;;;;;28.31;26.37;99717.47;1718066;82;22116;-40
2021/09/15 11:57:58;;;;;;;2.58;1.57;;;;;;;28.52;26.50;99710.84;1695636;83;21092;-40